sensor_id;sensor_type;location;lat;lon;timestamp;pressure;altitude;pressure_sealevel;temperature;humidity
25759;BME280;13604;52.496;13.456;2023-04-05T00:00:34;102071.78;;;-1.35;66.55
25759;BME280;13604;52.496;13.456;2023-04-05T00:02:59;102075.06;;;-1.36;66.66
25759;BME280;13604;52.496;13.456;2023-04-05T00:05:26;102071.25;;;-1.39;66.95
25759;BME280;13604;52.496;13.456;2023-04-05T00:07:56;102051.03;;;-1.52;67.21
25759;BME280;13604;52.496;13.456;2023-04-05T00:10:21;102049.78;;;-1.63;67.28
25759;BME280;13604;52.496;13.456;2023-04-05T00:12:47;102064.94;;;-1.57;66.99
25759;BME280;13604;52.496;13.456;2023-04-05T00:15:12;102072.25;;;-1.60;67.19
25759;BME280;13604;52.496;13.456;2023-04-05T00:17:37;102081.00;;;-1.58;67.16
25759;BME280;13604;52.496;13.456;2023-04-05T00:20:03;102074.44;;;-1.63;67.97
25759;BME280;13604;52.496;13.456;2023-04-05T00:22:32;102072.97;;;-1.61;67.29
25759;BME280;13604;52.496;13.456;2023-04-05T00:25:00;102071.88;;;-1.63;67.31
25759;BME280;13604;52.496;13.456;2023-04-05T00:27:25;102082.47;;;-1.60;67.48
25759;BME280;13604;52.496;13.456;2023-04-05T00:29:51;102076.63;;;-1.59;67.70
25759;BME280;13604;52.496;13.456;2023-04-05T00:32:16;102065.34;;;-1.69;67.94
25759;BME280;13604;52.496;13.456;2023-04-05T00:34:41;102070.59;;;-1.60;67.97
25759;BME280;13604;52.496;13.456;2023-04-05T00:37:06;102064.63;;;-1.68;67.87
25759;BME280;13604;52.496;13.456;2023-04-05T00:39:32;102054.59;;;-1.66;68.42
25759;BME280;13604;52.496;13.456;2023-04-05T00:41:57;102059.28;;;-1.62;68.47
25759;BME280;13604;52.496;13.456;2023-04-05T00:44:22;102064.75;;;-1.59;68.96
25759;BME280;13604;52.496;13.456;2023-04-05T00:46:48;102064.41;;;-1.62;68.48
25759;BME280;13604;52.496;13.456;2023-04-05T00:49:13;102042.03;;;-1.79;68.68
25759;BME280;13604;52.496;13.456;2023-04-05T00:51:39;102056.22;;;-1.67;68.98
25759;BME280;13604;52.496;13.456;2023-04-05T00:54:04;102062.25;;;-1.66;68.51
25759;BME280;13604;52.496;13.456;2023-04-05T00:56:30;102062.25;;;-1.66;68.88
25759;BME280;13604;52.496;13.456;2023-04-05T00:58:56;102037.47;;;-1.81;68.06
25759;BME280;13604;52.496;13.456;2023-04-05T01:01:22;102042.75;;;-1.80;67.97
25759;BME280;13604;52.496;13.456;2023-04-05T01:03:52;102055.66;;;-1.71;68.23
25759;BME280;13604;52.496;13.456;2023-04-05T01:11:32;102038.41;;;-1.81;68.90
25759;BME280;13604;52.496;13.456;2023-04-05T01:13:58;102054.25;;;-1.76;68.61
25759;BME280;13604;52.496;13.456;2023-04-05T01:16:24;102046.44;;;-1.85;69.00
25759;BME280;13604;52.496;13.456;2023-04-05T01:18:50;102056.63;;;-1.78;68.91
25759;BME280;13604;52.496;13.456;2023-04-05T01:21:36;102062.13;;;-1.82;69.39
25759;BME280;13604;52.496;13.456;2023-04-05T01:24:37;102041.38;;;-1.92;69.87
25759;BME280;13604;52.496;13.456;2023-04-05T01:27:15;102056.47;;;-1.87;69.34
25759;BME280;13604;52.496;13.456;2023-04-05T01:29:59;102057.03;;;-1.89;69.50
25759;BME280;13604;52.496;13.456;2023-04-05T01:35:29;102048.09;;;-1.93;70.36
25759;BME280;13604;52.496;13.456;2023-04-05T01:37:58;102049.38;;;-1.89;70.24
25759;BME280;13604;52.496;13.456;2023-04-05T01:40:25;102051.41;;;-1.94;70.50
25759;BME280;13604;52.496;13.456;2023-04-05T01:42:50;102052.31;;;-1.93;70.67
25759;BME280;13604;52.496;13.456;2023-04-05T01:45:16;102053.19;;;-1.93;70.49
25759;BME280;13604;52.496;13.456;2023-04-05T01:47:41;102022.63;;;-2.07;69.94
25759;BME280;13604;52.496;13.456;2023-04-05T01:50:07;102028.63;;;-2.07;70.35
25759;BME280;13604;52.496;13.456;2023-04-05T01:52:32;102023.72;;;-2.05;69.72
25759;BME280;13604;52.496;13.456;2023-04-05T01:54:58;102046.97;;;-1.88;70.07
25759;BME280;13604;52.496;13.456;2023-04-05T01:57:23;102040.97;;;-1.81;69.64
25759;BME280;13604;52.496;13.456;2023-04-05T01:59:48;102039.81;;;-1.69;69.53
25759;BME280;13604;52.496;13.456;2023-04-05T02:02:13;102025.56;;;-1.67;68.75
25759;BME280;13604;52.496;13.456;2023-04-05T02:04:39;102014.03;;;-1.63;68.21
25759;BME280;13604;52.496;13.456;2023-04-05T02:07:04;102027.69;;;-1.48;68.19
25759;BME280;13604;52.496;13.456;2023-04-05T02:09:30;102016.88;;;-1.45;67.91
25759;BME280;13604;52.496;13.456;2023-04-05T02:11:55;102015.56;;;-1.42;67.83
25759;BME280;13604;52.496;13.456;2023-04-05T02:14:21;102029.22;;;-1.34;67.86
25759;BME280;13604;52.496;13.456;2023-04-05T02:16:46;102029.69;;;-1.22;67.71
25759;BME280;13604;52.496;13.456;2023-04-05T02:19:12;102023.50;;;-1.24;68.26
25759;BME280;13604;52.496;13.456;2023-04-05T02:21:37;101998.72;;;-1.33;67.57
25759;BME280;13604;52.496;13.456;2023-04-05T02:24:03;102022.13;;;-1.14;67.16
25759;BME280;13604;52.496;13.456;2023-04-05T02:26:28;102027.75;;;-1.02;66.80
25759;BME280;13604;52.496;13.456;2023-04-05T02:28:53;102026.53;;;-0.89;66.27
25759;BME280;13604;52.496;13.456;2023-04-05T02:31:19;102016.19;;;-0.75;65.89
25759;BME280;13604;52.496;13.456;2023-04-05T02:33:45;102009.94;;;-0.70;65.87
25759;BME280;13604;52.496;13.456;2023-04-05T02:36:11;101970.38;;;-0.81;65.19
25759;BME280;13604;52.496;13.456;2023-04-05T02:38:37;102010.88;;;-0.53;64.79
25759;BME280;13604;52.496;13.456;2023-04-05T02:41:03;102012.28;;;-0.48;64.70
25759;BME280;13604;52.496;13.456;2023-04-05T02:43:28;102013.53;;;-0.45;65.04
25759;BME280;13604;52.496;13.456;2023-04-05T02:45:54;102007.94;;;-0.49;65.04
25759;BME280;13604;52.496;13.456;2023-04-05T02:48:19;102009.59;;;-0.34;64.71
25759;BME280;13604;52.496;13.456;2023-04-05T02:50:48;101999.50;;;-0.32;65.06
25759;BME280;13604;52.496;13.456;2023-04-05T02:53:15;102010.50;;;-0.17;64.64
25759;BME280;13604;52.496;13.456;2023-04-05T02:55:40;101992.41;;;-0.19;64.58
25759;BME280;13604;52.496;13.456;2023-04-05T02:58:06;102010.34;;;-0.03;63.99
25759;BME280;13604;52.496;13.456;2023-04-05T03:00:32;101987.31;;;-0.03;63.76
25759;BME280;13604;52.496;13.456;2023-04-05T03:02:57;102002.63;;;0.13;63.57
25759;BME280;13604;52.496;13.456;2023-04-05T03:05:23;101994.38;;;0.15;62.86
25759;BME280;13604;52.496;13.456;2023-04-05T03:07:48;101993.22;;;0.21;63.32
25759;BME280;13604;52.496;13.456;2023-04-05T03:10:16;101956.31;;;0.03;63.93
25759;BME280;13604;52.496;13.456;2023-04-05T03:12:42;101988.59;;;0.25;63.97
25759;BME280;13604;52.496;13.456;2023-04-05T03:15:09;101981.31;;;0.21;63.53
25759;BME280;13604;52.496;13.456;2023-04-05T03:17:34;101989.09;;;0.30;63.99
25759;BME280;13604;52.496;13.456;2023-04-05T03:20:01;101964.75;;;0.26;63.74
25759;BME280;13604;52.496;13.456;2023-04-05T03:22:32;101989.53;;;0.34;64.01
25759;BME280;13604;52.496;13.456;2023-04-05T03:24:58;101993.38;;;0.38;64.32
25759;BME280;13604;52.496;13.456;2023-04-05T03:27:24;101986.75;;;0.40;65.10
25759;BME280;13604;52.496;13.456;2023-04-05T03:29:50;101976.44;;;0.31;65.39
25759;BME280;13604;52.496;13.456;2023-04-05T03:32:15;101971.06;;;0.21;65.83
25759;BME280;13604;52.496;13.456;2023-04-05T03:34:41;101981.56;;;0.31;66.36
25759;BME280;13604;52.496;13.456;2023-04-05T03:37:06;101974.44;;;0.29;66.59
25759;BME280;13604;52.496;13.456;2023-04-05T03:39:31;101982.19;;;0.38;66.73
25759;BME280;13604;52.496;13.456;2023-04-05T03:41:57;101980.78;;;0.32;66.94
25759;BME280;13604;52.496;13.456;2023-04-05T03:44:22;101971.72;;;0.27;67.20
25759;BME280;13604;52.496;13.456;2023-04-05T03:46:47;101966.19;;;0.31;67.58
25759;BME280;13604;52.496;13.456;2023-04-05T03:49:12;101973.28;;;0.34;67.74
25759;BME280;13604;52.496;13.456;2023-04-05T03:51:38;101974.94;;;0.33;68.31
25759;BME280;13604;52.496;13.456;2023-04-05T03:54:03;101967.66;;;0.29;67.92
25759;BME280;13604;52.496;13.456;2023-04-05T03:56:28;101965.19;;;0.38;68.30
25759;BME280;13604;52.496;13.456;2023-04-05T03:58:54;101968.97;;;0.42;68.52
25759;BME280;13604;52.496;13.456;2023-04-05T04:01:19;101975.19;;;0.52;67.99
25759;BME280;13604;52.496;13.456;2023-04-05T04:03:45;101950.41;;;0.44;68.23
25759;BME280;13604;52.496;13.456;2023-04-05T04:06:10;101968.94;;;0.58;68.25
25759;BME280;13604;52.496;13.456;2023-04-05T04:08:36;101977.22;;;0.64;68.08
25759;BME280;13604;52.496;13.456;2023-04-05T04:11:01;101947.66;;;0.59;68.46
25759;BME280;13604;52.496;13.456;2023-04-05T04:13:27;101968.28;;;0.76;68.08
25759;BME280;13604;52.496;13.456;2023-04-05T04:15:52;101956.31;;;0.68;68.15
25759;BME280;13604;52.496;13.456;2023-04-05T04:18:17;101961.97;;;0.81;68.23
25759;BME280;13604;52.496;13.456;2023-04-05T04:20:43;101958.03;;;0.85;68.42
25759;BME280;13604;52.496;13.456;2023-04-05T04:23:08;101962.28;;;0.84;68.46
25759;BME280;13604;52.496;13.456;2023-04-05T04:25:37;101967.44;;;0.93;68.47
25759;BME280;13604;52.496;13.456;2023-04-05T04:28:03;101975.78;;;0.99;68.31
25759;BME280;13604;52.496;13.456;2023-04-05T04:30:31;101966.88;;;0.96;67.60
25759;BME280;13604;52.496;13.456;2023-04-05T04:32:59;101977.72;;;1.02;67.72
25759;BME280;13604;52.496;13.456;2023-04-05T04:35:29;101965.50;;;0.99;67.68
25759;BME280;13604;52.496;13.456;2023-04-05T04:38:00;101974.28;;;1.01;67.56
25759;BME280;13604;52.496;13.456;2023-04-05T04:40:30;101976.41;;;1.05;67.43
25759;BME280;13604;52.496;13.456;2023-04-05T04:43:08;101969.16;;;1.10;66.96
25759;BME280;13604;52.496;13.456;2023-04-05T04:45:35;101942.91;;;1.04;67.25
25759;BME280;13604;52.496;13.456;2023-04-05T04:48:02;101972.69;;;1.19;67.16
25759;BME280;13604;52.496;13.456;2023-04-05T04:50:29;101973.75;;;1.21;67.08
25759;BME280;13604;52.496;13.456;2023-04-05T04:52:55;101968.00;;;1.15;67.28
25759;BME280;13604;52.496;13.456;2023-04-05T04:55:20;101943.50;;;1.10;67.55
25759;BME280;13604;52.496;13.456;2023-04-05T04:57:50;101968.19;;;1.25;67.36
25759;BME280;13604;52.496;13.456;2023-04-05T05:00:16;101971.97;;;1.29;66.91
25759;BME280;13604;52.496;13.456;2023-04-05T05:02:42;101963.78;;;1.24;66.88
25759;BME280;13604;52.496;13.456;2023-04-05T05:05:08;101976.63;;;1.33;66.44
25759;BME280;13604;52.496;13.456;2023-04-05T05:07:35;101911.19;;;1.03;66.82
25759;BME280;13604;52.496;13.456;2023-04-05T05:10:00;101970.50;;;1.40;66.40
25759;BME280;13604;52.496;13.456;2023-04-05T05:12:26;101974.13;;;1.42;65.95
25759;BME280;13604;52.496;13.456;2023-04-05T05:14:52;101976.84;;;1.43;65.65
25759;BME280;13604;52.496;13.456;2023-04-05T05:17:17;101976.06;;;1.44;65.67
25759;BME280;13604;52.496;13.456;2023-04-05T05:19:42;101965.06;;;1.45;65.64
25759;BME280;13604;52.496;13.456;2023-04-05T05:22:08;101967.66;;;1.54;65.79
25759;BME280;13604;52.496;13.456;2023-04-05T05:24:33;101967.06;;;1.65;64.98
25759;BME280;13604;52.496;13.456;2023-04-05T05:26:58;101975.22;;;1.61;64.39
25759;BME280;13604;52.496;13.456;2023-04-05T05:29:23;101955.38;;;1.43;65.15
25759;BME280;13604;52.496;13.456;2023-04-05T05:31:49;101960.56;;;1.60;64.83
25759;BME280;13604;52.496;13.456;2023-04-05T05:34:14;101967.53;;;1.70;64.93
25759;BME280;13604;52.496;13.456;2023-04-05T05:36:41;101963.19;;;1.78;64.22
25759;BME280;13604;52.496;13.456;2023-04-05T05:39:06;101961.34;;;1.77;64.25
25759;BME280;13604;52.496;13.456;2023-04-05T05:41:32;101950.75;;;1.74;64.16
25759;BME280;13604;52.496;13.456;2023-04-05T05:43:57;101954.41;;;1.84;64.18
25759;BME280;13604;52.496;13.456;2023-04-05T05:46:23;101960.91;;;1.90;63.92
25759;BME280;13604;52.496;13.456;2023-04-05T05:48:48;101944.44;;;1.88;63.14
25759;BME280;13604;52.496;13.456;2023-04-05T05:51:13;101962.13;;;2.02;63.24
25759;BME280;13604;52.496;13.456;2023-04-05T05:53:39;101953.94;;;2.15;63.18
25759;BME280;13604;52.496;13.456;2023-04-05T05:56:04;101952.72;;;2.20;62.77
25759;BME280;13604;52.496;13.456;2023-04-05T05:58:30;101943.66;;;2.24;62.31
25759;BME280;13604;52.496;13.456;2023-04-05T06:00:56;101948.19;;;2.35;62.23
25759;BME280;13604;52.496;13.456;2023-04-05T06:03:24;101948.19;;;2.44;61.37
25759;BME280;13604;52.496;13.456;2023-04-05T06:05:59;101938.06;;;2.45;61.13
25759;BME280;13604;52.496;13.456;2023-04-05T06:08:27;101944.69;;;2.52;60.94
25759;BME280;13604;52.496;13.456;2023-04-05T06:10:52;101922.16;;;2.32;61.10
25759;BME280;13604;52.496;13.456;2023-04-05T06:13:18;101946.31;;;2.69;60.40
25759;BME280;13604;52.496;13.456;2023-04-05T06:15:44;101944.91;;;2.81;60.86
25759;BME280;13604;52.496;13.456;2023-04-05T06:18:10;101963.28;;;3.03;60.92
25759;BME280;13604;52.496;13.456;2023-04-05T06:20:36;101967.50;;;3.11;60.89
25759;BME280;13604;52.496;13.456;2023-04-05T06:23:07;101960.38;;;3.18;59.94
25759;BME280;13604;52.496;13.456;2023-04-05T06:25:32;101939.50;;;3.06;59.45
25759;BME280;13604;52.496;13.456;2023-04-05T06:27:57;101960.91;;;3.24;59.49
25759;BME280;13604;52.496;13.456;2023-04-05T06:30:23;101938.53;;;3.23;59.12
25759;BME280;13604;52.496;13.456;2023-04-05T06:32:48;101942.66;;;3.40;59.79
25759;BME280;13604;52.496;13.456;2023-04-05T06:35:21;101958.94;;;3.58;59.48
25759;BME280;13604;52.496;13.456;2023-04-05T06:37:46;101942.59;;;3.48;58.92
25759;BME280;13604;52.496;13.456;2023-04-05T06:40:12;101959.94;;;3.68;58.65
25759;BME280;13604;52.496;13.456;2023-04-05T06:42:38;101962.72;;;3.80;58.58
25759;BME280;13604;52.496;13.456;2023-04-05T06:45:03;101966.25;;;3.91;58.25
25759;BME280;13604;52.496;13.456;2023-04-05T06:47:33;101957.38;;;4.07;58.40
25759;BME280;13604;52.496;13.456;2023-04-05T06:49:58;101960.75;;;4.16;58.27
25759;BME280;13604;52.496;13.456;2023-04-05T06:52:23;101942.66;;;4.24;57.64
25759;BME280;13604;52.496;13.456;2023-04-05T06:54:49;101951.13;;;4.42;57.73
25759;BME280;13604;52.496;13.456;2023-04-05T06:57:14;101954.94;;;4.56;57.26
25759;BME280;13604;52.496;13.456;2023-04-05T06:59:39;101930.31;;;4.70;57.32
25759;BME280;13604;52.496;13.456;2023-04-05T07:02:05;101942.16;;;4.87;57.69
25759;BME280;13604;52.496;13.456;2023-04-05T07:04:30;101931.97;;;4.99;58.14
25759;BME280;13604;52.496;13.456;2023-04-05T07:07:00;101953.31;;;5.27;56.11
25759;BME280;13604;52.496;13.456;2023-04-05T07:09:26;101938.97;;;5.31;55.92
25759;BME280;13604;52.496;13.456;2023-04-05T07:11:54;101930.59;;;5.23;55.43
25759;BME280;13604;52.496;13.456;2023-04-05T07:14:21;101932.38;;;5.14;55.23
25759;BME280;13604;52.496;13.456;2023-04-05T07:16:47;101950.47;;;5.24;55.30
25759;BME280;13604;52.496;13.456;2023-04-05T07:19:12;101943.38;;;5.32;55.97
25759;BME280;13604;52.496;13.456;2023-04-05T07:21:37;101917.81;;;5.25;55.58
25759;BME280;13604;52.496;13.456;2023-04-05T07:24:03;101920.13;;;5.42;55.42
25759;BME280;13604;52.496;13.456;2023-04-05T07:26:28;101933.81;;;5.72;55.25
25759;BME280;13604;52.496;13.456;2023-04-05T07:28:54;101945.59;;;5.99;55.21
25759;BME280;13604;52.496;13.456;2023-04-05T07:31:19;101924.38;;;6.14;54.61
25759;BME280;13604;52.496;13.456;2023-04-05T07:33:44;101946.09;;;6.58;54.63
25759;BME280;13604;52.496;13.456;2023-04-05T07:36:10;101951.72;;;6.97;53.76
25759;BME280;13604;52.496;13.456;2023-04-05T07:38:35;101942.75;;;7.26;52.57
25759;BME280;13604;52.496;13.456;2023-04-05T07:41:00;101943.94;;;8.10;51.52
25759;BME280;13604;52.496;13.456;2023-04-05T07:43:26;101928.03;;;8.77;48.92
25759;BME280;13604;52.496;13.456;2023-04-05T07:45:51;101928.34;;;8.81;48.01
25759;BME280;13604;52.496;13.456;2023-04-05T07:48:20;101936.44;;;8.98;48.28
25759;BME280;13604;52.496;13.456;2023-04-05T07:50:45;101957.88;;;9.32;47.13
25759;BME280;13604;52.496;13.456;2023-04-05T07:53:12;101935.06;;;9.53;46.33
25759;BME280;13604;52.496;13.456;2023-04-05T07:55:37;101946.28;;;10.18;47.45
25759;BME280;13604;52.496;13.456;2023-04-05T07:58:03;101944.28;;;10.94;47.77
25759;BME280;13604;52.496;13.456;2023-04-05T08:00:28;101949.81;;;12.00;44.37
25759;BME280;13604;52.496;13.456;2023-04-05T08:02:53;101941.72;;;12.56;40.46
25759;BME280;13604;52.496;13.456;2023-04-05T08:05:19;101932.91;;;13.02;42.59
25759;BME280;13604;52.496;13.456;2023-04-05T08:07:44;101941.84;;;13.38;41.13
25759;BME280;13604;52.496;13.456;2023-04-05T08:10:09;101938.16;;;13.51;38.65
25759;BME280;13604;52.496;13.456;2023-04-05T08:12:35;101942.16;;;13.95;37.58
25759;BME280;13604;52.496;13.456;2023-04-05T08:15:00;101937.53;;;14.26;37.18
25759;BME280;13604;52.496;13.456;2023-04-05T08:17:25;101917.09;;;14.01;35.62
25759;BME280;13604;52.496;13.456;2023-04-05T08:19:52;101933.25;;;14.82;36.34
25759;BME280;13604;52.496;13.456;2023-04-05T08:22:18;101913.09;;;14.81;33.34
25759;BME280;13604;52.496;13.456;2023-04-05T08:24:44;101935.31;;;15.26;35.09
25759;BME280;13604;52.496;13.456;2023-04-05T08:27:09;101918.88;;;14.73;34.05
25759;BME280;13604;52.496;13.456;2023-04-05T08:29:35;101927.50;;;15.08;34.22
25759;BME280;13604;52.496;13.456;2023-04-05T08:32:01;101932.75;;;15.88;34.15
25759;BME280;13604;52.496;13.456;2023-04-05T08:34:26;101904.44;;;16.02;32.73
25759;BME280;13604;52.496;13.456;2023-04-05T08:36:51;101918.25;;;16.40;31.85
25759;BME280;13604;52.496;13.456;2023-04-05T08:39:17;101913.22;;;15.81;32.42
25759;BME280;13604;52.496;13.456;2023-04-05T08:41:58;101939.56;;;16.48;31.70
25759;BME280;13604;52.496;13.456;2023-04-05T08:44:27;101913.28;;;16.70;30.54
25759;BME280;13604;52.496;13.456;2023-04-05T08:46:55;101934.53;;;17.46;30.06
25759;BME280;13604;52.496;13.456;2023-04-05T08:49:22;101928.41;;;16.76;30.13
25759;BME280;13604;52.496;13.456;2023-04-05T08:51:47;101915.38;;;17.76;30.02
25759;BME280;13604;52.496;13.456;2023-04-05T08:54:12;101921.97;;;17.63;29.93
25759;BME280;13604;52.496;13.456;2023-04-05T08:56:39;101927.75;;;18.30;28.85
25759;BME280;13604;52.496;13.456;2023-04-05T08:59:07;101922.19;;;16.74;28.93
25759;BME280;13604;52.496;13.456;2023-04-05T09:01:37;101938.78;;;17.66;29.41
25759;BME280;13604;52.496;13.456;2023-04-05T09:04:11;101931.59;;;18.68;28.72
25759;BME280;13604;52.496;13.456;2023-04-05T09:06:38;101924.22;;;19.16;27.17
25759;BME280;13604;52.496;13.456;2023-04-05T09:09:05;101930.88;;;18.18;28.17
25759;BME280;13604;52.496;13.456;2023-04-05T09:11:32;101929.50;;;19.46;27.09
25759;BME280;13604;52.496;13.456;2023-04-05T09:13:57;101922.50;;;20.15;27.63
25759;BME280;13604;52.496;13.456;2023-04-05T09:16:23;101932.41;;;19.89;27.04
25759;BME280;13604;52.496;13.456;2023-04-05T09:18:49;101930.84;;;19.31;26.95
25759;BME280;13604;52.496;13.456;2023-04-05T09:21:15;101904.56;;;20.39;27.09
25759;BME280;13604;52.496;13.456;2023-04-05T09:23:50;101919.50;;;19.36;27.47
25759;BME280;13604;52.496;13.456;2023-04-05T09:26:22;101907.75;;;19.90;27.12
25759;BME280;13604;52.496;13.456;2023-04-05T09:28:47;101927.88;;;20.56;26.35
25759;BME280;13604;52.496;13.456;2023-04-05T09:31:48;101912.34;;;20.33;25.60
25759;BME280;13604;52.496;13.456;2023-04-05T09:34:19;101923.47;;;19.85;25.55
25759;BME280;13604;52.496;13.456;2023-04-05T09:36:46;101911.72;;;20.45;25.96
25759;BME280;13604;52.496;13.456;2023-04-05T09:39:11;101906.88;;;21.49;24.58
25759;BME280;13604;52.496;13.456;2023-04-05T09:41:36;101916.84;;;22.13;24.39
25759;BME280;13604;52.496;13.456;2023-04-05T09:44:03;101905.16;;;20.66;24.62
25759;BME280;13604;52.496;13.456;2023-04-05T09:46:34;101907.22;;;22.19;23.36
25759;BME280;13604;52.496;13.456;2023-04-05T09:49:02;101912.09;;;21.93;23.15
25759;BME280;13604;52.496;13.456;2023-04-05T09:51:32;101897.13;;;21.48;23.73
25759;BME280;13604;52.496;13.456;2023-04-05T09:54:08;101914.22;;;21.20;24.27
25759;BME280;13604;52.496;13.456;2023-04-05T09:56:39;101907.78;;;20.28;24.78
25759;BME280;13604;52.496;13.456;2023-04-05T10:01:31;101912.78;;;21.81;23.96
25759;BME280;13604;52.496;13.456;2023-04-05T10:03:56;101922.09;;;22.10;23.25
25759;BME280;13604;52.496;13.456;2023-04-05T10:06:23;101913.50;;;22.26;23.53
25759;BME280;13604;52.496;13.456;2023-04-05T10:08:49;101892.53;;;21.86;23.43
25759;BME280;13604;52.496;13.456;2023-04-05T10:11:19;101900.31;;;23.76;22.44
25759;BME280;13604;52.496;13.456;2023-04-05T10:13:45;101900.34;;;25.08;21.32
25759;BME280;13604;52.496;13.456;2023-04-05T10:16:12;101897.78;;;25.62;19.75
25759;BME280;13604;52.496;13.456;2023-04-05T10:18:48;101892.44;;;26.45;20.11
25759;BME280;13604;52.496;13.456;2023-04-05T10:21:20;101903.34;;;27.80;17.90
25759;BME280;13604;52.496;13.456;2023-04-05T10:23:51;101909.78;;;23.45;20.38
25759;BME280;13604;52.496;13.456;2023-04-05T10:26:26;101897.78;;;22.37;22.32
25759;BME280;13604;52.496;13.456;2023-04-05T10:28:59;101905.81;;;20.96;24.31
25759;BME280;13604;52.496;13.456;2023-04-05T10:31:47;101894.19;;;20.88;24.36
25759;BME280;13604;52.496;13.456;2023-04-05T10:34:34;101909.50;;;19.89;25.32
25759;BME280;13604;52.496;13.456;2023-04-05T10:37:03;101904.41;;;18.71;26.18
25759;BME280;13604;52.496;13.456;2023-04-05T10:39:35;101895.44;;;17.57;27.50
25759;BME280;13604;52.496;13.456;2023-04-05T10:42:26;101891.28;;;16.46;28.33
25759;BME280;13604;52.496;13.456;2023-04-05T10:45:01;101899.72;;;15.53;29.97
25759;BME280;13604;52.496;13.456;2023-04-05T10:47:31;101889.88;;;14.15;32.20
25759;BME280;13604;52.496;13.456;2023-04-05T10:50:01;101885.09;;;13.04;34.18
25759;BME280;13604;52.496;13.456;2023-04-05T10:52:27;101899.66;;;12.05;35.35
25759;BME280;13604;52.496;13.456;2023-04-05T10:54:54;101882.69;;;11.24;36.89
25759;BME280;13604;52.496;13.456;2023-04-05T10:57:21;101890.56;;;10.82;37.33
25759;BME280;13604;52.496;13.456;2023-04-05T10:59:48;101895.31;;;10.08;40.28
25759;BME280;13604;52.496;13.456;2023-04-05T11:02:14;101881.78;;;9.73;40.01
25759;BME280;13604;52.496;13.456;2023-04-05T11:04:40;101891.84;;;9.55;41.35
25759;BME280;13604;52.496;13.456;2023-04-05T11:07:09;101901.81;;;9.11;42.91
25759;BME280;13604;52.496;13.456;2023-04-05T11:09:35;101890.16;;;8.92;43.25
25759;BME280;13604;52.496;13.456;2023-04-05T11:12:01;101900.22;;;8.88;43.53
25759;BME280;13604;52.496;13.456;2023-04-05T11:14:35;101880.25;;;8.75;44.02
25759;BME280;13604;52.496;13.456;2023-04-05T11:17:01;101885.34;;;8.73;44.18
25759;BME280;13604;52.496;13.456;2023-04-05T11:22:08;101873.09;;;9.21;42.38
25759;BME280;13604;52.496;13.456;2023-04-05T11:27:14;101872.09;;;10.38;40.39
25759;BME280;13604;52.496;13.456;2023-04-05T11:29:47;101887.88;;;11.09;39.64
25759;BME280;13604;52.496;13.456;2023-04-05T11:32:13;101885.31;;;11.54;39.77
25759;BME280;13604;52.496;13.456;2023-04-05T11:34:41;101871.22;;;11.65;38.72
25759;BME280;13604;52.496;13.456;2023-04-05T11:37:06;101885.97;;;11.79;39.48
25759;BME280;13604;52.496;13.456;2023-04-05T11:39:32;101888.75;;;11.83;39.41
25759;BME280;13604;52.496;13.456;2023-04-05T11:42:04;101877.44;;;12.60;37.96
25759;BME280;13604;52.496;13.456;2023-04-05T11:47:08;101873.53;;;13.17;37.15
25759;BME280;13604;52.496;13.456;2023-04-05T11:49:36;101853.91;;;12.60;36.94
25759;BME280;13604;52.496;13.456;2023-04-05T11:52:13;101878.34;;;11.98;38.05
25759;BME280;13604;52.496;13.456;2023-04-05T11:54:39;101876.50;;;11.52;38.97
25759;BME280;13604;52.496;13.456;2023-04-05T11:57:17;101865.84;;;11.04;39.46
25759;BME280;13604;52.496;13.456;2023-04-05T11:59:42;101874.09;;;10.55;40.82
25759;BME280;13604;52.496;13.456;2023-04-05T12:02:08;101879.13;;;9.99;41.90
25759;BME280;13604;52.496;13.456;2023-04-05T12:04:37;101873.06;;;9.60;43.58
25759;BME280;13604;52.496;13.456;2023-04-05T12:07:16;101873.69;;;9.30;44.22
25759;BME280;13604;52.496;13.456;2023-04-05T12:12:40;101871.84;;;8.91;45.42
25759;BME280;13604;52.496;13.456;2023-04-05T12:15:09;101876.59;;;8.96;45.58
25759;BME280;13604;52.496;13.456;2023-04-05T12:17:44;101867.31;;;9.00;45.19
25759;BME280;13604;52.496;13.456;2023-04-05T12:20:11;101872.09;;;9.32;44.75
25759;BME280;13604;52.496;13.456;2023-04-05T12:22:55;101865.78;;;9.29;44.74
25759;BME280;13604;52.496;13.456;2023-04-05T12:25:21;101867.28;;;9.25;44.19
25759;BME280;13604;52.496;13.456;2023-04-05T12:27:47;101868.59;;;10.10;42.27
25759;BME280;13604;52.496;13.456;2023-04-05T12:30:20;101856.28;;;10.48;41.91
25759;BME280;13604;52.496;13.456;2023-04-05T12:32:53;101852.09;;;10.37;41.90
25759;BME280;13604;52.496;13.456;2023-04-05T12:35:29;101854.78;;;10.52;41.53
25759;BME280;13604;52.496;13.456;2023-04-05T12:38:00;101850.78;;;10.43;40.34
25759;BME280;13604;52.496;13.456;2023-04-05T12:40:27;101857.41;;;11.38;40.06
25759;BME280;13604;52.496;13.456;2023-04-05T12:43:06;101854.56;;;11.93;39.06
25759;BME280;13604;52.496;13.456;2023-04-05T12:45:32;101847.16;;;11.56;38.83
25759;BME280;13604;52.496;13.456;2023-04-05T12:50:32;101854.06;;;11.11;40.73
25759;BME280;13604;52.496;13.456;2023-04-05T12:53:05;101849.16;;;11.30;41.56
25759;BME280;13604;52.496;13.456;2023-04-05T12:55:31;101839.25;;;11.39;40.45
25759;BME280;13604;52.496;13.456;2023-04-05T12:58:00;101846.34;;;11.27;40.77
25759;BME280;13604;52.496;13.456;2023-04-05T13:00:28;101849.66;;;11.24;40.61
25759;BME280;13604;52.496;13.456;2023-04-05T13:02:55;101838.25;;;11.08;40.62
25759;BME280;13604;52.496;13.456;2023-04-05T13:05:22;101829.72;;;11.10;41.21
25759;BME280;13604;52.496;13.456;2023-04-05T13:07:48;101846.84;;;11.35;41.15
25759;BME280;13604;52.496;13.456;2023-04-05T13:10:13;101844.03;;;11.47;39.47